sensor_id;sensor_type;location;lat;lon;timestamp;temperature;humidity
46091;DHT22;31826;53.572;10.170;2023-02-13T00:02:08;7.00;99.90
46091;DHT22;31826;53.572;10.170;2023-02-13T00:04:34;7.00;99.90
46091;DHT22;31826;53.572;10.170;2023-02-13T00:07:00;7.00;99.90
46091;DHT22;31826;53.572;10.170;2023-02-13T00:09:26;7.00;99.90
46091;DHT22;31826;53.572;10.170;2023-02-13T00:11:52;7.00;99.90
46091;DHT22;31826;53.572;10.170;2023-02-13T00:14:17;7.00;99.90
46091;DHT22;31826;53.572;10.170;2023-02-13T00:16:43;7.10;99.90
46091;DHT22;31826;53.572;10.170;2023-02-13T00:19:09;7.00;99.90
46091;DHT22;31826;53.572;10.170;2023-02-13T00:21:34;7.10;99.90
46091;DHT22;31826;53.572;10.170;2023-02-13T00:24:00;7.10;99.90
46091;DHT22;31826;53.572;10.170;2023-02-13T00:26:26;7.10;99.90
46091;DHT22;31826;53.572;10.170;2023-02-13T00:28:51;7.00;99.90
46091;DHT22;31826;53.572;10.170;2023-02-13T00:31:19;7.10;99.90
46091;DHT22;31826;53.572;10.170;2023-02-13T00:33:45;7.00;99.90
46091;DHT22;31826;53.572;10.170;2023-02-13T00:36:13;7.10;99.90
46091;DHT22;31826;53.572;10.170;2023-02-13T00:38:40;7.20;99.90
46091;DHT22;31826;53.572;10.170;2023-02-13T00:41:07;7.10;99.90
46091;DHT22;31826;53.572;10.170;2023-02-13T00:43:33;7.10;99.90
46091;DHT22;31826;53.572;10.170;2023-02-13T00:45:59;7.10;99.90
46091;DHT22;31826;53.572;10.170;2023-02-13T00:48:26;7.10;99.90
46091;DHT22;31826;53.572;10.170;2023-02-13T00:50:53;7.10;99.90
46091;DHT22;31826;53.572;10.170;2023-02-13T00:53:23;7.10;99.90
46091;DHT22;31826;53.572;10.170;2023-02-13T00:55:49;7.10;99.90
46091;DHT22;31826;53.572;10.170;2023-02-13T00:58:16;7.10;99.90
46091;DHT22;31826;53.572;10.170;2023-02-13T01:00:42;7.10;99.90
46091;DHT22;31826;53.572;10.170;2023-02-13T01:03:09;7.10;99.90
46091;DHT22;31826;53.572;10.170;2023-02-13T01:05:35;7.10;99.90
46091;DHT22;31826;53.572;10.170;2023-02-13T01:08:01;7.10;99.90
46091;DHT22;31826;53.572;10.170;2023-02-13T01:10:27;7.10;99.90
46091;DHT22;31826;53.572;10.170;2023-02-13T01:12:52;7.10;99.90
46091;DHT22;31826;53.572;10.170;2023-02-13T01:15:18;7.00;99.90
46091;DHT22;31826;53.572;10.170;2023-02-13T01:17:44;7.00;99.90
46091;DHT22;31826;53.572;10.170;2023-02-13T01:20:11;7.10;99.90
46091;DHT22;31826;53.572;10.170;2023-02-13T01:22:38;7.00;99.90
46091;DHT22;31826;53.572;10.170;2023-02-13T01:25:04;7.00;99.90
46091;DHT22;31826;53.572;10.170;2023-02-13T01:27:31;7.10;99.90
46091;DHT22;31826;53.572;10.170;2023-02-13T01:29:58;7.10;99.90
46091;DHT22;31826;53.572;10.170;2023-02-13T01:32:24;7.00;99.90
46091;DHT22;31826;53.572;10.170;2023-02-13T01:34:49;7.00;99.90
46091;DHT22;31826;53.572;10.170;2023-02-13T01:37:15;7.00;99.90
46091;DHT22;31826;53.572;10.170;2023-02-13T01:39:41;7.00;99.90
46091;DHT22;31826;53.572;10.170;2023-02-13T01:42:16;7.00;99.90
46091;DHT22;31826;53.572;10.170;2023-02-13T01:44:48;7.00;99.90
46091;DHT22;31826;53.572;10.170;2023-02-13T01:47:22;7.10;99.90
46091;DHT22;31826;53.572;10.170;2023-02-13T01:49:49;7.00;99.90
46091;DHT22;31826;53.572;10.170;2023-02-13T01:52:16;7.00;99.90
46091;DHT22;31826;53.572;10.170;2023-02-13T01:54:43;6.90;99.90
46091;DHT22;31826;53.572;10.170;2023-02-13T01:57:17;7.00;99.90
46091;DHT22;31826;53.572;10.170;2023-02-13T01:59:49;6.90;99.90
46091;DHT22;31826;53.572;10.170;2023-02-13T02:02:16;6.90;99.90
46091;DHT22;31826;53.572;10.170;2023-02-13T02:04:43;6.90;99.90
46091;DHT22;31826;53.572;10.170;2023-02-13T02:07:19;6.90;99.90
46091;DHT22;31826;53.572;10.170;2023-02-13T02:09:46;6.90;99.90
46091;DHT22;31826;53.572;10.170;2023-02-13T02:12:34;7.00;99.90
46091;DHT22;31826;53.572;10.170;2023-02-13T02:15:01;6.90;99.90
46091;DHT22;31826;53.572;10.170;2023-02-13T02:17:28;6.90;99.90
46091;DHT22;31826;53.572;10.170;2023-02-13T02:47:26;6.80;99.90
46091;DHT22;31826;53.572;10.170;2023-02-13T02:50:31;6.90;99.90
46091;DHT22;31826;53.572;10.170;2023-02-13T02:56:21;6.80;99.90
46091;DHT22;31826;53.572;10.170;2023-02-13T02:59:06;6.70;99.90
46091;DHT22;31826;53.572;10.170;2023-02-13T03:01:52;6.80;99.90
46091;DHT22;31826;53.572;10.170;2023-02-13T03:04:43;6.80;99.90
46091;DHT22;31826;53.572;10.170;2023-02-13T03:07:29;6.80;99.90
46091;DHT22;31826;53.572;10.170;2023-02-13T03:09:58;6.70;99.90
46091;DHT22;31826;53.572;10.170;2023-02-13T03:12:48;6.70;99.90
46091;DHT22;31826;53.572;10.170;2023-02-13T03:15:37;6.70;99.90
46091;DHT22;31826;53.572;10.170;2023-02-13T03:18:23;6.70;99.90
46091;DHT22;31826;53.572;10.170;2023-02-13T03:24:31;6.70;99.90
46091;DHT22;31826;53.572;10.170;2023-02-13T03:27:12;6.60;99.90
46091;DHT22;31826;53.572;10.170;2023-02-13T03:30:04;6.80;99.90
46091;DHT22;31826;53.572;10.170;2023-02-13T03:38:26;6.70;99.90
46091;DHT22;31826;53.572;10.170;2023-02-13T03:41:46;6.70;99.90
46091;DHT22;31826;53.572;10.170;2023-02-13T03:43:51;6.70;99.90
46091;DHT22;31826;53.572;10.170;2023-02-13T03:46:18;6.70;99.90
46091;DHT22;31826;53.572;10.170;2023-02-13T03:48:45;6.70;99.90
46091;DHT22;31826;53.572;10.170;2023-02-13T03:51:46;6.70;99.90
46091;DHT22;31826;53.572;10.170;2023-02-13T03:54:40;6.70;99.90
46091;DHT22;31826;53.572;10.170;2023-02-13T03:57:27;6.70;99.90
46091;DHT22;31826;53.572;10.170;2023-02-13T04:00:13;6.70;99.90
46091;DHT22;31826;53.572;10.170;2023-02-13T04:03:21;6.70;99.90
46091;DHT22;31826;53.572;10.170;2023-02-13T04:05:41;6.70;99.90
46091;DHT22;31826;53.572;10.170;2023-02-13T04:08:08;6.60;99.90
46091;DHT22;31826;53.572;10.170;2023-02-13T04:10:36;6.60;99.90
46091;DHT22;31826;53.572;10.170;2023-02-13T04:13:26;6.60;99.90
46091;DHT22;31826;53.572;10.170;2023-02-13T04:16:05;6.60;99.90
46091;DHT22;31826;53.572;10.170;2023-02-13T04:18:33;6.60;99.90
46091;DHT22;31826;53.572;10.170;2023-02-13T04:21:04;6.60;99.90
46091;DHT22;31826;53.572;10.170;2023-02-13T04:23:29;6.60;99.90
46091;DHT22;31826;53.572;10.170;2023-02-13T04:25:56;6.60;99.90
46091;DHT22;31826;53.572;10.170;2023-02-13T04:28:22;6.60;99.90
46091;DHT22;31826;53.572;10.170;2023-02-13T04:30:48;6.50;99.90
46091;DHT22;31826;53.572;10.170;2023-02-13T04:33:17;6.50;99.90
46091;DHT22;31826;53.572;10.170;2023-02-13T04:35:42;6.50;99.90
46091;DHT22;31826;53.572;10.170;2023-02-13T04:38:08;6.50;99.90
46091;DHT22;31826;53.572;10.170;2023-02-13T04:40:34;6.50;99.90
46091;DHT22;31826;53.572;10.170;2023-02-13T04:43:00;6.50;99.90
46091;DHT22;31826;53.572;10.170;2023-02-13T04:45:25;6.50;99.90
46091;DHT22;31826;53.572;10.170;2023-02-13T04:47:53;6.60;99.90
46091;DHT22;31826;53.572;10.170;2023-02-13T04:50:19;6.50;99.90
46091;DHT22;31826;53.572;10.170;2023-02-13T04:52:45;6.50;99.90
46091;DHT22;31826;53.572;10.170;2023-02-13T04:55:11;6.50;99.90
46091;DHT22;31826;53.572;10.170;2023-02-13T04:57:36;6.50;99.90
46091;DHT22;31826;53.572;10.170;2023-02-13T05:00:04;6.40;99.90
46091;DHT22;31826;53.572;10.170;2023-02-13T05:02:30;6.50;99.90
46091;DHT22;31826;53.572;10.170;2023-02-13T05:04:56;6.50;99.90
46091;DHT22;31826;53.572;10.170;2023-02-13T05:07:22;6.50;99.90
46091;DHT22;31826;53.572;10.170;2023-02-13T05:09:47;6.40;99.90
46091;DHT22;31826;53.572;10.170;2023-02-13T05:12:13;6.40;99.90
46091;DHT22;31826;53.572;10.170;2023-02-13T05:14:39;6.40;99.90
46091;DHT22;31826;53.572;10.170;2023-02-13T05:17:04;6.40;99.90
46091;DHT22;31826;53.572;10.170;2023-02-13T05:19:30;6.40;99.90
46091;DHT22;31826;53.572;10.170;2023-02-13T05:21:56;6.50;99.90
46091;DHT22;31826;53.572;10.170;2023-02-13T05:24:40;6.40;99.90
46091;DHT22;31826;53.572;10.170;2023-02-13T05:27:06;6.50;99.90
46091;DHT22;31826;53.572;10.170;2023-02-13T05:29:31;6.40;99.90
46091;DHT22;31826;53.572;10.170;2023-02-13T05:31:57;6.50;99.90
46091;DHT22;31826;53.572;10.170;2023-02-13T05:34:25;6.40;99.90
46091;DHT22;31826;53.572;10.170;2023-02-13T05:36:51;6.40;99.90
46091;DHT22;31826;53.572;10.170;2023-02-13T05:39:17;6.40;99.90
46091;DHT22;31826;53.572;10.170;2023-02-13T05:41:44;6.40;99.90
46091;DHT22;31826;53.572;10.170;2023-02-13T05:44:11;6.30;99.90
46091;DHT22;31826;53.572;10.170;2023-02-13T05:46:38;6.40;99.90
46091;DHT22;31826;53.572;10.170;2023-02-13T05:49:04;6.40;99.90
46091;DHT22;31826;53.572;10.170;2023-02-13T05:51:30;6.30;99.90
46091;DHT22;31826;53.572;10.170;2023-02-13T05:53:57;6.40;99.90
46091;DHT22;31826;53.572;10.170;2023-02-13T05:56:23;6.30;99.90
46091;DHT22;31826;53.572;10.170;2023-02-13T05:58:52;6.40;99.90
46091;DHT22;31826;53.572;10.170;2023-02-13T06:01:19;6.30;99.90
46091;DHT22;31826;53.572;10.170;2023-02-13T06:03:45;6.30;99.90
46091;DHT22;31826;53.572;10.170;2023-02-13T06:06:10;6.40;99.90
46091;DHT22;31826;53.572;10.170;2023-02-13T06:08:36;6.40;99.90
46091;DHT22;31826;53.572;10.170;2023-02-13T06:11:02;6.40;99.90
46091;DHT22;31826;53.572;10.170;2023-02-13T06:13:28;6.30;99.90
46091;DHT22;31826;53.572;10.170;2023-02-13T06:15:54;6.30;99.90
46091;DHT22;31826;53.572;10.170;2023-02-13T06:18:20;6.30;99.90
46091;DHT22;31826;53.572;10.170;2023-02-13T06:20:45;6.30;99.90
46091;DHT22;31826;53.572;10.170;2023-02-13T06:23:11;6.30;99.90
46091;DHT22;31826;53.572;10.170;2023-02-13T06:25:37;6.30;99.90
46091;DHT22;31826;53.572;10.170;2023-02-13T06:28:04;6.30;99.90
46091;DHT22;31826;53.572;10.170;2023-02-13T06:30:30;6.30;99.90
46091;DHT22;31826;53.572;10.170;2023-02-13T06:32:56;6.30;99.90
46091;DHT22;31826;53.572;10.170;2023-02-13T06:35:22;6.30;99.90
46091;DHT22;31826;53.572;10.170;2023-02-13T06:37:48;6.30;99.90
46091;DHT22;31826;53.572;10.170;2023-02-13T06:40:14;6.30;99.90
46091;DHT22;31826;53.572;10.170;2023-02-13T06:42:44;6.30;99.90
46091;DHT22;31826;53.572;10.170;2023-02-13T06:45:10;6.20;99.90
46091;DHT22;31826;53.572;10.170;2023-02-13T06:47:40;6.20;99.90
46091;DHT22;31826;53.572;10.170;2023-02-13T06:50:06;6.20;99.90
46091;DHT22;31826;53.572;10.170;2023-02-13T06:52:32;6.20;99.90
46091;DHT22;31826;53.572;10.170;2023-02-13T06:54:59;6.20;99.90
46091;DHT22;31826;53.572;10.170;2023-02-13T06:57:25;6.20;99.90
46091;DHT22;31826;53.572;10.170;2023-02-13T06:59:51;6.30;99.90
46091;DHT22;31826;53.572;10.170;2023-02-13T07:02:17;6.20;99.90
46091;DHT22;31826;53.572;10.170;2023-02-13T07:04:42;6.30;99.90
46091;DHT22;31826;53.572;10.170;2023-02-13T07:07:08;6.20;99.90
46091;DHT22;31826;53.572;10.170;2023-02-13T07:09:34;6.20;99.90
46091;DHT22;31826;53.572;10.170;2023-02-13T07:12:03;6.30;99.90
46091;DHT22;31826;53.572;10.170;2023-02-13T07:14:29;6.20;99.90
46091;DHT22;31826;53.572;10.170;2023-02-13T07:16:55;6.30;99.90
46091;DHT22;31826;53.572;10.170;2023-02-13T07:19:21;6.30;99.90
46091;DHT22;31826;53.572;10.170;2023-02-13T07:21:46;6.30;99.90
46091;DHT22;31826;53.572;10.170;2023-02-13T07:24:12;6.30;99.90
46091;DHT22;31826;53.572;10.170;2023-02-13T07:26:38;6.30;99.90
46091;DHT22;31826;53.572;10.170;2023-02-13T07:29:04;6.30;99.90
46091;DHT22;31826;53.572;10.170;2023-02-13T07:31:33;6.30;99.90
46091;DHT22;31826;53.572;10.170;2023-02-13T07:33:59;6.30;99.90
46091;DHT22;31826;53.572;10.170;2023-02-13T07:36:26;6.30;99.90
46091;DHT22;31826;53.572;10.170;2023-02-13T07:38:52;6.30;99.90
46091;DHT22;31826;53.572;10.170;2023-02-13T07:41:19;6.40;99.90
46091;DHT22;31826;53.572;10.170;2023-02-13T07:43:44;6.40;99.90
46091;DHT22;31826;53.572;10.170;2023-02-13T07:46:10;6.30;99.90
46091;DHT22;31826;53.572;10.170;2023-02-13T07:48:36;6.30;99.90
46091;DHT22;31826;53.572;10.170;2023-02-13T07:51:03;6.30;99.90
46091;DHT22;31826;53.572;10.170;2023-02-13T07:53:29;6.30;99.90
46091;DHT22;31826;53.572;10.170;2023-02-13T07:55:55;6.30;99.90
46091;DHT22;31826;53.572;10.170;2023-02-13T07:58:21;6.40;99.90
46091;DHT22;31826;53.572;10.170;2023-02-13T08:00:47;6.40;99.90
46091;DHT22;31826;53.572;10.170;2023-02-13T08:03:12;6.40;99.90
46091;DHT22;31826;53.572;10.170;2023-02-13T08:05:38;6.40;99.90
46091;DHT22;31826;53.572;10.170;2023-02-13T08:08:05;6.40;99.90
46091;DHT22;31826;53.572;10.170;2023-02-13T08:10:31;6.40;99.90
46091;DHT22;31826;53.572;10.170;2023-02-13T08:13:16;6.40;99.90
46091;DHT22;31826;53.572;10.170;2023-02-13T08:15:41;6.50;99.90
46091;DHT22;31826;53.572;10.170;2023-02-13T08:18:09;6.40;99.90
46091;DHT22;31826;53.572;10.170;2023-02-13T08:20:35;6.40;99.90
46091;DHT22;31826;53.572;10.170;2023-02-13T08:23:02;6.50;99.90
46091;DHT22;31826;53.572;10.170;2023-02-13T08:25:28;6.40;99.90
46091;DHT22;31826;53.572;10.170;2023-02-13T08:27:54;6.50;99.90
46091;DHT22;31826;53.572;10.170;2023-02-13T08:30:20;6.50;99.90
46091;DHT22;31826;53.572;10.170;2023-02-13T08:32:45;6.50;99.90
46091;DHT22;31826;53.572;10.170;2023-02-13T08:35:11;6.50;99.90
46091;DHT22;31826;53.572;10.170;2023-02-13T08:37:37;6.50;99.90
46091;DHT22;31826;53.572;10.170;2023-02-13T08:40:02;6.50;99.90
46091;DHT22;31826;53.572;10.170;2023-02-13T08:42:28;6.50;99.90
46091;DHT22;31826;53.572;10.170;2023-02-13T08:44:54;6.50;99.90
46091;DHT22;31826;53.572;10.170;2023-02-13T08:47:19;6.60;99.90
46091;DHT22;31826;53.572;10.170;2023-02-13T08:49:45;6.60;99.90
46091;DHT22;31826;53.572;10.170;2023-02-13T08:52:11;6.60;99.90
46091;DHT22;31826;53.572;10.170;2023-02-13T08:54:37;6.60;99.90
46091;DHT22;31826;53.572;10.170;2023-02-13T08:57:02;6.50;99.90
46091;DHT22;31826;53.572;10.170;2023-02-13T08:59:28;6.50;99.90
46091;DHT22;31826;53.572;10.170;2023-02-13T09:01:54;6.60;99.90
46091;DHT22;31826;53.572;10.170;2023-02-13T09:04:21;6.70;99.90
46091;DHT22;31826;53.572;10.170;2023-02-13T09:06:46;6.60;99.90
46091;DHT22;31826;53.572;10.170;2023-02-13T09:09:12;6.70;99.90
46091;DHT22;31826;53.572;10.170;2023-02-13T09:11:38;6.60;99.90
46091;DHT22;31826;53.572;10.170;2023-02-13T09:14:03;6.60;99.90
46091;DHT22;31826;53.572;10.170;2023-02-13T09:16:29;6.60;99.90
46091;DHT22;31826;53.572;10.170;2023-02-13T09:18:55;6.70;99.90
46091;DHT22;31826;53.572;10.170;2023-02-13T09:21:21;6.70;99.90
46091;DHT22;31826;53.572;10.170;2023-02-13T09:23:48;6.70;99.90
46091;DHT22;31826;53.572;10.170;2023-02-13T09:26:16;6.80;99.90
46091;DHT22;31826;53.572;10.170;2023-02-13T09:28:42;6.70;99.90
46091;DHT22;31826;53.572;10.170;2023-02-13T09:31:13;6.80;99.90
46091;DHT22;31826;53.572;10.170;2023-02-13T09:33:40;6.80;99.90
46091;DHT22;31826;53.572;10.170;2023-02-13T09:36:09;6.80;99.90
46091;DHT22;31826;53.572;10.170;2023-02-13T09:38:35;6.80;99.90
46091;DHT22;31826;53.572;10.170;2023-02-13T09:41:09;6.80;99.90
46091;DHT22;31826;53.572;10.170;2023-02-13T09:43:51;6.80;99.90
46091;DHT22;31826;53.572;10.170;2023-02-13T09:46:24;6.80;99.90
46091;DHT22;31826;53.572;10.170;2023-02-13T09:48:53;6.90;99.90
46091;DHT22;31826;53.572;10.170;2023-02-13T09:51:21;6.80;99.90
46091;DHT22;31826;53.572;10.170;2023-02-13T09:53:56;6.80;99.90
46091;DHT22;31826;53.572;10.170;2023-02-13T09:56:47;6.90;99.90
46091;DHT22;31826;53.572;10.170;2023-02-13T10:02:19;6.90;99.90
46091;DHT22;31826;53.572;10.170;2023-02-13T10:04:59;6.90;99.90
46091;DHT22;31826;53.572;10.170;2023-02-13T10:16:13;7.10;99.90
46091;DHT22;31826;53.572;10.170;2023-02-13T10:19:01;7.00;99.90
46091;DHT22;31826;53.572;10.170;2023-02-13T10:21:41;7.10;99.90
46091;DHT22;31826;53.572;10.170;2023-02-13T10:26:48;7.00;99.90
46091;DHT22;31826;53.572;10.170;2023-02-13T10:29:23;7.10;99.90
46091;DHT22;31826;53.572;10.170;2023-02-13T10:32:13;7.10;99.90
46091;DHT22;31826;53.572;10.170;2023-02-13T10:34:44;7.10;99.90
46091;DHT22;31826;53.572;10.170;2023-02-13T10:37:16;7.10;99.90
46091;DHT22;31826;53.572;10.170;2023-02-13T10:39:44;7.10;99.90
46091;DHT22;31826;53.572;10.170;2023-02-13T10:42:22;7.20;99.90
46091;DHT22;31826;53.572;10.170;2023-02-13T10:51:18;7.30;99.90
46091;DHT22;31826;53.572;10.170;2023-02-13T10:59:27;7.30;99.90
46091;DHT22;31826;53.572;10.170;2023-02-13T11:02:24;7.30;99.90
46091;DHT22;31826;53.572;10.170;2023-02-13T11:05:00;7.30;99.90
46091;DHT22;31826;53.572;10.170;2023-02-13T11:07:28;7.40;99.90
46091;DHT22;31826;53.572;10.170;2023-02-13T11:09:58;7.30;99.90
46091;DHT22;31826;53.572;10.170;2023-02-13T11:12:31;7.40;99.90
46091;DHT22;31826;53.572;10.170;2023-02-13T11:14:59;7.40;99.90
46091;DHT22;31826;53.572;10.170;2023-02-13T11:17:27;7.40;99.90
46091;DHT22;31826;53.572;10.170;2023-02-13T11:19:57;7.40;99.90
46091;DHT22;31826;53.572;10.170;2023-02-13T11:25:17;7.40;99.90
46091;DHT22;31826;53.572;10.170;2023-02-13T11:27:44;7.50;99.90
46091;DHT22;31826;53.572;10.170;2023-02-13T11:35:44;7.60;99.90
46091;DHT22;31826;53.572;10.170;2023-02-13T11:40:46;7.60;99.90
46091;DHT22;31826;53.572;10.170;2023-02-13T11:43:22;7.50;99.90
46091;DHT22;31826;53.572;10.170;2023-02-13T11:46:24;7.50;99.90
46091;DHT22;31826;53.572;10.170;2023-02-13T11:49:05;7.60;99.90
46091;DHT22;31826;53.572;10.170;2023-02-13T11:51:38;7.60;99.90
46091;DHT22;31826;53.572;10.170;2023-02-13T11:54:05;7.60;99.90
46091;DHT22;31826;53.572;10.170;2023-02-13T11:59:43;7.60;99.90
46091;DHT22;31826;53.572;10.170;2023-02-13T12:04:43;7.70;99.90
46091;DHT22;31826;53.572;10.170;2023-02-13T12:07:27;7.60;99.90
46091;DHT22;31826;53.572;10.170;2023-02-13T12:15:35;7.70;99.90
46091;DHT22;31826;53.572;10.170;2023-02-13T12:21:25;7.60;99.90
46091;DHT22;31826;53.572;10.170;2023-02-13T12:23:54;7.60;99.90
46091;DHT22;31826;53.572;10.170;2023-02-13T12:26:36;7.70;99.90
46091;DHT22;31826;53.572;10.170;2023-02-13T12:34:39;7.60;99.90
46091;DHT22;31826;53.572;10.170;2023-02-13T12:40:20;7.60;99.90
46091;DHT22;31826;53.572;10.170;2023-02-13T12:45:41;7.70;99.90
46091;DHT22;31826;53.572;10.170;2023-02-13T12:56:58;7.80;99.90
46091;DHT22;31826;53.572;10.170;2023-02-13T13:21:12;7.70;99.90
46091;DHT22;31826;53.572;10.170;2023-02-13T13:26:47;7.60;99.90
46091;DHT22;31826;53.572;10.170;2023-02-13T13:29:42;7.60;99.90
46091;DHT22;31826;53.572;10.170;2023-02-13T13:32:15;7.60;99.90
46091;DHT22;31826;53.572;10.170;2023-02-13T13:34:42;7.70;99.90
46091;DHT22;31826;53.572;10.170;2023-02-13T13:40:05;7.70;99.90
46091;DHT22;31826;53.572;10.170;2023-02-13T13:42:39;7.70;99.90
46091;DHT22;31826;53.572;10.170;2023-02-13T13:51:18;7.70;99.90
46091;DHT22;31826;53.572;10.170;2023-02-13T13:56:26;7.70;99.90
46091;DHT22;31826;53.572;10.170;2023-02-13T13:58:52;7.70;99.90
46091;DHT22;31826;53.572;10.170;2023-02-13T14:01:24;7.60;99.90
46091;DHT22;31826;53.572;10.170;2023-02-13T14:03:59;7.60;99.90
46091;DHT22;31826;53.572;10.170;2023-02-13T14:11:57;7.60;99.90
46091;DHT22;31826;53.572;10.170;2023-02-13T14:14:43;7.60;99.90
46091;DHT22;31826;53.572;10.170;2023-02-13T14:17:13;7.50;99.90
46091;DHT22;31826;53.572;10.170;2023-02-13T14:19:42;7.50;99.90
46091;DHT22;31826;53.572;10.170;2023-02-13T14:22:26;7.40;99.90
46091;DHT22;31826;53.572;10.170;2023-02-13T14:25:04;7.50;99.90
46091;DHT22;31826;53.572;10.170;2023-02-13T14:27:32;7.50;99.90
46091;DHT22;31826;53.572;10.170;2023-02-13T14:29:59;7.50;99.90
46091;DHT22;31826;53.572;10.170;2023-02-13T14:34:57;7.50;99.90
46091;DHT22;31826;53.572;10.170;2023-02-13T14:37:34;7.50;99.90
46091;DHT22;31826;53.572;10.170;2023-02-13T14:42:36;7.40;99.90
46091;DHT22;31826;53.572;10.170;2023-02-13T14:45:04;7.40;99.90
46091;DHT22;31826;53.572;10.170;2023-02-13T14:47:41;7.40;99.90
46091;DHT22;31826;53.572;10.170;2023-02-13T14:50:16;7.40;99.90
46091;DHT22;31826;53.572;10.170;2023-02-13T14:52:45;7.40;99.90
46091;DHT22;31826;53.572;10.170;2023-02-13T14:55:33;7.40;99.90
46091;DHT22;31826;53.572;10.170;2023-02-13T15:03:46;7.40;99.90
46091;DHT22;31826;53.572;10.170;2023-02-13T15:08:52;7.40;99.90
46091;DHT22;31826;53.572;10.170;2023-02-13T15:11:44;7.40;99.90
46091;DHT22;31826;53.572;10.170;2023-02-13T15:14:21;7.30;99.90
46091;DHT22;31826;53.572;10.170;2023-02-13T15:17:34;7.30;99.90
46091;DHT22;31826;53.572;10.170;2023-02-13T15:19:50;7.30;99.90
46091;DHT22;31826;53.572;10.170;2023-02-13T15:22:23;7.20;99.90
46091;DHT22;31826;53.572;10.170;2023-02-13T15:24:53;7.20;99.90
46091;DHT22;31826;53.572;10.170;2023-02-13T15:27:28;7.20;99.90
46091;DHT22;31826;53.572;10.170;2023-02-13T15:30:01;7.20;99.90
46091;DHT22;31826;53.572;10.170;2023-02-13T15:32:32;7.10;99.90
46091;DHT22;31826;53.572;10.170;2023-02-13T15:34:58;7.10;99.90
46091;DHT22;31826;53.572;10.170;2023-02-13T15:37:28;7.10;99.90
46091;DHT22;31826;53.572;10.170;2023-02-13T15:39:54;7.10;99.90
46091;DHT22;31826;53.572;10.170;2023-02-13T15:42:20;7.10;99.90
46091;DHT22;31826;53.572;10.170;2023-02-13T15:44:57;7.10;99.90
46091;DHT22;31826;53.572;10.170;2023-02-13T15:47:29;7.10;99.90
46091;DHT22;31826;53.572;10.170;2023-02-13T15:49:55;7.10;99.90
46091;DHT22;31826;53.572;10.170;2023-02-13T15:52:32;7.10;99.90
46091;DHT22;31826;53.572;10.170;2023-02-13T15:54:59;7.00;99.90
46091;DHT22;31826;53.572;10.170;2023-02-13T15:57:25;7.10;99.90
46091;DHT22;31826;53.572;10.170;2023-02-13T15:59:53;7.10;99.90
46091;DHT22;31826;53.572;10.170;2023-02-13T16:04:52;7.00;99.90
46091;DHT22;31826;53.572;10.170;2023-02-13T16:07:19;7.00;99.90
46091;DHT22;31826;53.572;10.170;2023-02-13T16:09:45;7.00;99.90
46091;DHT22;31826;53.572;10.170;2023-02-13T16:12:25;6.90;99.90
46091;DHT22;31826;53.572;10.170;2023-02-13T16:14:52;6.90;99.90
46091;DHT22;31826;53.572;10.170;2023-02-13T16:17:36;6.80;99.90
46091;DHT22;31826;53.572;10.170;2023-02-13T16:22:47;6.80;99.90
46091;DHT22;31826;53.572;10.170;2023-02-13T16:25:29;6.80;99.90
46091;DHT22;31826;53.572;10.170;2023-02-13T16:28:01;6.80;99.90
46091;DHT22;31826;53.572;10.170;2023-02-13T16:30:35;6.80;99.90
46091;DHT22;31826;53.572;10.170;2023-02-13T16:40:55;6.70;99.90
46091;DHT22;31826;53.572;10.170;2023-02-13T16:43:41;6.70;99.90
46091;DHT22;31826;53.572;10.170;2023-02-13T16:56:44;6.70;99.90
46091;DHT22;31826;53.572;10.170;2023-02-13T16:59:31;6.70;99.90
46091;DHT22;31826;53.572;10.170;2023-02-13T17:02:24;6.80;99.90
46091;DHT22;31826;53.572;10.170;2023-02-13T17:04:54;6.70;99.90
46091;DHT22;31826;53.572;10.170;2023-02-13T17:07:24;6.70;99.90
46091;DHT22;31826;53.572;10.170;2023-02-13T17:10:03;6.70;99.90
46091;DHT22;31826;53.572;10.170;2023-02-13T17:12:30;6.70;99.90
46091;DHT22;31826;53.572;10.170;2023-02-13T17:14:58;6.70;99.90
46091;DHT22;31826;53.572;10.170;2023-02-13T17:17:27;6.60;99.90
46091;DHT22;31826;53.572;10.170;2023-02-13T17:19:53;6.60;99.90
46091;DHT22;31826;53.572;10.170;2023-02-13T17:22:31;6.60;99.90
46091;DHT22;31826;53.572;10.170;2023-02-13T17:25:00;6.70;99.90
46091;DHT22;31826;53.572;10.170;2023-02-13T17:27:26;6.60;99.90
46091;DHT22;31826;53.572;10.170;2023-02-13T17:29:52;6.60;99.90
46091;DHT22;31826;53.572;10.170;2023-02-13T17:32:21;6.60;99.90
46091;DHT22;31826;53.572;10.170;2023-02-13T17:34:48;6.60;99.90
46091;DHT22;31826;53.572;10.170;2023-02-13T17:37:24;6.50;99.90
46091;DHT22;31826;53.572;10.170;2023-02-13T17:39:50;6.50;99.90
46091;DHT22;31826;53.572;10.170;2023-02-13T17:42:25;6.50;99.90
46091;DHT22;31826;53.572;10.170;2023-02-13T17:44:52;6.50;99.90
46091;DHT22;31826;53.572;10.170;2023-02-13T17:47:19;6.50;99.90
46091;DHT22;31826;53.572;10.170;2023-02-13T17:49:45;6.50;99.90
46091;DHT22;31826;53.572;10.170;2023-02-13T17:52:16;6.50;99.90
46091;DHT22;31826;53.572;10.170;2023-02-13T17:54:45;6.50;99.90
46091;DHT22;31826;53.572;10.170;2023-02-13T17:57:14;6.50;99.90
46091;DHT22;31826;53.572;10.170;2023-02-13T17:59:41;6.40;99.90
46091;DHT22;31826;53.572;10.170;2023-02-13T18:02:19;6.40;99.90
46091;DHT22;31826;53.572;10.170;2023-02-13T18:04:45;6.40;99.90
46091;DHT22;31826;53.572;10.170;2023-02-13T18:07:13;6.40;99.90
46091;DHT22;31826;53.572;10.170;2023-02-13T18:09:39;6.40;99.90
46091;DHT22;31826;53.572;10.170;2023-02-13T18:12:09;6.40;99.90
46091;DHT22;31826;53.572;10.170;2023-02-13T18:14:36;6.40;99.90
46091;DHT22;31826;53.572;10.170;2023-02-13T18:17:02;6.40;99.90
46091;DHT22;31826;53.572;10.170;2023-02-13T18:19:28;6.40;99.90
46091;DHT22;31826;53.572;10.170;2023-02-13T18:21:53;6.30;99.90
46091;DHT22;31826;53.572;10.170;2023-02-13T18:24:19;6.40;99.90
46091;DHT22;31826;53.572;10.170;2023-02-13T18:26:45;6.30;99.90
46091;DHT22;31826;53.572;10.170;2023-02-13T18:29:10;6.40;99.90
46091;DHT22;31826;53.572;10.170;2023-02-13T18:31:36;6.30;99.90
46091;DHT22;31826;53.572;10.170;2023-02-13T18:34:02;6.30;99.90
46091;DHT22;31826;53.572;10.170;2023-02-13T18:36:27;6.30;99.90
46091;DHT22;31826;53.572;10.170;2023-02-13T18:38:53;6.30;99.90
46091;DHT22;31826;53.572;10.170;2023-02-13T18:41:19;6.30;99.90
46091;DHT22;31826;53.572;10.170;2023-02-13T18:43:46;6.30;99.90
46091;DHT22;31826;53.572;10.170;2023-02-13T18:46:11;6.40;99.90
46091;DHT22;31826;53.572;10.170;2023-02-13T18:48:37;6.30;99.90
46091;DHT22;31826;53.572;10.170;2023-02-13T18:51:03;6.30;99.90
46091;DHT22;31826;53.572;10.170;2023-02-13T18:53:29;6.30;99.90
46091;DHT22;31826;53.572;10.170;2023-02-13T18:56:05;6.30;99.90
46091;DHT22;31826;53.572;10.170;2023-02-13T18:58:32;6.30;99.90
46091;DHT22;31826;53.572;10.170;2023-02-13T19:01:15;6.30;99.90